Aviation Digital Data Service (ADDS)

Output produced by METARs form (0817 UTC 18 November 2018)
found at http://www.aviationweather.gov/metar/data/
 
METAR text: ROMY 180800Z 17007KT 9999 FEW012 BKN047 25/21 Q1014
Conditions at: ROMY (MIYAKOJIMA ISLAN, JP) observed 0800 UTC 18 November 2018
Temperature: 25.0°C (77°F)
Dewpoint: 21.0°C (70°F) [RH = 79%]
Pressure (altimeter): 29.94 inches Hg (1014.0 mb)
Winds: from the S (170 degrees) at 8 MPH (7 knots; 3.6 m/s)
Visibility: 6 or more miles (10+ km)
Ceiling: 4700 feet AGL
Clouds: few clouds at 1200 feet AGL
broken clouds at 4700 feet AGL
Weather: no significant weather observed at this time